Startpagina
METAR-TAF:

METAR-TAF

Vliegvelden :

Kenneth Kaunda International Airport

Lusaka, Zambia

breedte: 15-19-51S, lengte: 028-27-09E, hoogte: 1152 m

Actueel weer

Dit bericht is 1 uur en het 5 minuten geleden gemaakt, om 02:00 UTC
Wind 2 kt uit het oostzuidoosten
Temperatuur 10°C
Vochtigheid 76%
Druk 1027 hPa
Zicht 10 km of meer
geen wolken onder 1500 m en geen cumulonimbus

METAR: FLKK 170200Z 12002KT CAVOK 10/06 Q1027

Tijdstip: 05:05 (03:05 UTC)

Verwachting

Dit bericht is 11 uur en het 5 minuten geleden gemaakt, om 16:00 UTC
Verwachting geldig van 16 om 18 UTC tot 17 om 24 UTC
Wind 4 kt uit variabele richting
Zicht 10 km of meer
geen wolken onder 1500 m en geen cumulonimbus

TAF: FLKK 161600Z 1618/1724 VRB04KT CAVOK

Waarnemingen en weersverwachtingen van meer dan 4000 vliegvelden (METAR en TAF).

De beschikbare stations zijn de gele en rode punten op de kaart.

Ga met uw muis naar het station om de naam te zien.

Klik dan om waarnemingen en weersverwachtingen te zien.

kaart wijzigen: klik op de groene knoppen met een zwart kruis om in te zoomen, op de groene knop met een streepje om uit te zoomen of op de groene pijlen voor aangrenzende kaarten.


METAR-TAF: